sensor_id;sensor_type;location;lat;lon;timestamp;P1;durP1;ratioP1;P2;durP2;ratioP2
78987;SDS011;68389;44.716;37.756;2023-04-03T00:00:40;1.80;;;0.70;;
78987;SDS011;68389;44.716;37.756;2023-04-03T00:01:41;1.10;;;0.80;;
78987;SDS011;68389;44.716;37.756;2023-04-03T00:02:42;1.23;;;0.73;;
78987;SDS011;68389;44.716;37.756;2023-04-03T00:03:43;1.08;;;0.80;;
78987;SDS011;68389;44.716;37.756;2023-04-03T00:04:44;0.85;;;0.60;;
78987;SDS011;68389;44.716;37.756;2023-04-03T00:05:46;0.75;;;0.57;;
78987;SDS011;68389;44.716;37.756;2023-04-03T00:06:47;1.35;;;0.60;;
78987;SDS011;68389;44.716;37.756;2023-04-03T00:07:48;0.80;;;0.60;;
78987;SDS011;68389;44.716;37.756;2023-04-03T00:08:50;2.30;;;0.80;;
78987;SDS011;68389;44.716;37.756;2023-04-03T00:09:51;1.13;;;0.75;;
78987;SDS011;68389;44.716;37.756;2023-04-03T00:10:52;2.45;;;0.70;;
78987;SDS011;68389;44.716;37.756;2023-04-03T00:11:53;1.52;;;0.80;;
78987;SDS011;68389;44.716;37.756;2023-04-03T00:12:54;1.50;;;0.70;;
78987;SDS011;68389;44.716;37.756;2023-04-03T00:13:56;0.95;;;0.68;;
78987;SDS011;68389;44.716;37.756;2023-04-03T00:14:57;1.13;;;0.63;;
78987;SDS011;68389;44.716;37.756;2023-04-03T00:15:58;1.67;;;0.60;;
78987;SDS011;68389;44.716;37.756;2023-04-03T00:17:00;1.02;;;0.65;;
78987;SDS011;68389;44.716;37.756;2023-04-03T00:18:01;0.90;;;0.60;;
78987;SDS011;68389;44.716;37.756;2023-04-03T00:19:02;0.82;;;0.60;;
78987;SDS011;68389;44.716;37.756;2023-04-03T00:20:04;1.00;;;0.70;;
78987;SDS011;68389;44.716;37.756;2023-04-03T00:21:06;1.13;;;0.55;;
78987;SDS011;68389;44.716;37.756;2023-04-03T00:22:08;1.27;;;0.70;;
78987;SDS011;68389;44.716;37.756;2023-04-03T00:23:10;1.05;;;0.63;;
78987;SDS011;68389;44.716;37.756;2023-04-03T00:24:11;1.08;;;0.68;;
78987;SDS011;68389;44.716;37.756;2023-04-03T00:25:12;1.23;;;0.70;;
78987;SDS011;68389;44.716;37.756;2023-04-03T00:26:13;1.02;;;0.70;;
78987;SDS011;68389;44.716;37.756;2023-04-03T00:27:14;1.88;;;0.70;;
78987;SDS011;68389;44.716;37.756;2023-04-03T00:28:16;0.65;;;0.40;;
78987;SDS011;68389;44.716;37.756;2023-04-03T00:29:17;1.98;;;1.02;;
78987;SDS011;68389;44.716;37.756;2023-04-03T00:30:18;0.70;;;0.70;;
78987;SDS011;68389;44.716;37.756;2023-04-03T00:31:21;1.17;;;0.70;;
78987;SDS011;68389;44.716;37.756;2023-04-03T00:32:22;1.27;;;0.80;;
78987;SDS011;68389;44.716;37.756;2023-04-03T00:33:23;1.27;;;0.73;;
78987;SDS011;68389;44.716;37.756;2023-04-03T00:34:25;2.35;;;0.70;;
78987;SDS011;68389;44.716;37.756;2023-04-03T00:35:26;0.88;;;0.70;;
78987;SDS011;68389;44.716;37.756;2023-04-03T00:36:27;2.22;;;0.90;;
78987;SDS011;68389;44.716;37.756;2023-04-03T00:37:29;0.65;;;0.60;;
78987;SDS011;68389;44.716;37.756;2023-04-03T00:38:31;1.27;;;0.70;;
78987;SDS011;68389;44.716;37.756;2023-04-03T00:39:32;1.40;;;0.90;;
78987;SDS011;68389;44.716;37.756;2023-04-03T00:40:41;1.65;;;0.70;;
78987;SDS011;68389;44.716;37.756;2023-04-03T00:41:44;0.85;;;0.75;;
78987;SDS011;68389;44.716;37.756;2023-04-03T00:42:45;1.23;;;0.73;;
78987;SDS011;68389;44.716;37.756;2023-04-03T00:43:48;0.98;;;0.70;;
78987;SDS011;68389;44.716;37.756;2023-04-03T00:45:57;2.03;;;0.60;;
78987;SDS011;68389;44.716;37.756;2023-04-03T00:46:59;1.15;;;0.70;;
78987;SDS011;68389;44.716;37.756;2023-04-03T00:48:01;0.95;;;0.60;;
78987;SDS011;68389;44.716;37.756;2023-04-03T00:49:06;0.88;;;0.75;;
78987;SDS011;68389;44.716;37.756;2023-04-03T00:50:08;1.08;;;0.77;;
78987;SDS011;68389;44.716;37.756;2023-04-03T00:51:11;1.08;;;0.60;;
78987;SDS011;68389;44.716;37.756;2023-04-03T00:52:16;0.85;;;0.82;;
78987;SDS011;68389;44.716;37.756;2023-04-03T00:54:26;0.57;;;0.57;;
78987;SDS011;68389;44.716;37.756;2023-04-03T00:55:27;1.25;;;0.77;;
78987;SDS011;68389;44.716;37.756;2023-04-03T00:56:28;2.10;;;0.60;;
78987;SDS011;68389;44.716;37.756;2023-04-03T00:57:30;1.00;;;0.70;;
78987;SDS011;68389;44.716;37.756;2023-04-03T00:58:34;1.10;;;0.50;;
78987;SDS011;68389;44.716;37.756;2023-04-03T00:59:40;2.83;;;0.75;;
78987;SDS011;68389;44.716;37.756;2023-04-03T01:00:46;0.70;;;0.70;;
78987;SDS011;68389;44.716;37.756;2023-04-03T01:01:56;0.95;;;0.70;;
78987;SDS011;68389;44.716;37.756;2023-04-03T01:02:57;1.05;;;0.60;;
78987;SDS011;68389;44.716;37.756;2023-04-03T01:03:59;1.05;;;0.50;;
78987;SDS011;68389;44.716;37.756;2023-04-03T01:05:01;1.00;;;0.85;;
78987;SDS011;68389;44.716;37.756;2023-04-03T01:06:02;2.20;;;0.68;;
78987;SDS011;68389;44.716;37.756;2023-04-03T01:07:06;0.60;;;0.50;;
78987;SDS011;68389;44.716;37.756;2023-04-03T01:08:09;1.33;;;0.63;;
78987;SDS011;68389;44.716;37.756;2023-04-03T01:09:11;0.70;;;0.70;;
78987;SDS011;68389;44.716;37.756;2023-04-03T01:10:14;1.13;;;0.70;;
78987;SDS011;68389;44.716;37.756;2023-04-03T01:11:16;0.60;;;0.60;;
78987;SDS011;68389;44.716;37.756;2023-04-03T01:14:27;0.63;;;0.60;;
78987;SDS011;68389;44.716;37.756;2023-04-03T01:15:28;1.10;;;0.73;;
78987;SDS011;68389;44.716;37.756;2023-04-03T01:16:35;1.30;;;0.70;;
78987;SDS011;68389;44.716;37.756;2023-04-03T01:17:37;0.95;;;0.75;;
78987;SDS011;68389;44.716;37.756;2023-04-03T01:18:46;1.25;;;0.60;;
78987;SDS011;68389;44.716;37.756;2023-04-03T01:19:47;1.23;;;0.73;;
78987;SDS011;68389;44.716;37.756;2023-04-03T01:22:30;2.20;;;0.70;;
78987;SDS011;68389;44.716;37.756;2023-04-03T01:23:47;0.70;;;0.70;;
78987;SDS011;68389;44.716;37.756;2023-04-03T01:24:59;2.30;;;0.80;;
78987;SDS011;68389;44.716;37.756;2023-04-03T01:26:01;0.80;;;0.52;;
78987;SDS011;68389;44.716;37.756;2023-04-03T01:27:04;1.33;;;0.85;;
78987;SDS011;68389;44.716;37.756;2023-04-03T01:28:08;1.65;;;0.75;;
78987;SDS011;68389;44.716;37.756;2023-04-03T01:29:11;1.10;;;0.68;;
78987;SDS011;68389;44.716;37.756;2023-04-03T01:30:13;1.40;;;0.52;;
78987;SDS011;68389;44.716;37.756;2023-04-03T01:32:42;0.75;;;0.63;;
78987;SDS011;68389;44.716;37.756;2023-04-03T01:33:43;1.40;;;0.70;;
78987;SDS011;68389;44.716;37.756;2023-04-03T01:34:45;0.80;;;0.50;;
78987;SDS011;68389;44.716;37.756;2023-04-03T01:35:46;0.90;;;0.40;;
78987;SDS011;68389;44.716;37.756;2023-04-03T01:36:47;1.52;;;0.68;;
78987;SDS011;68389;44.716;37.756;2023-04-03T01:37:48;0.50;;;0.50;;
78987;SDS011;68389;44.716;37.756;2023-04-03T01:38:49;0.68;;;0.50;;
78987;SDS011;68389;44.716;37.756;2023-04-03T01:39:51;0.57;;;0.50;;
78987;SDS011;68389;44.716;37.756;2023-04-03T01:40:52;0.90;;;0.90;;
78987;SDS011;68389;44.716;37.756;2023-04-03T01:41:53;0.80;;;0.60;;
78987;SDS011;68389;44.716;37.756;2023-04-03T01:42:54;1.27;;;0.70;;
78987;SDS011;68389;44.716;37.756;2023-04-03T01:43:55;1.92;;;0.70;;
78987;SDS011;68389;44.716;37.756;2023-04-03T01:44:56;1.15;;;0.50;;
78987;SDS011;68389;44.716;37.756;2023-04-03T01:45:57;0.75;;;0.60;;
78987;SDS011;68389;44.716;37.756;2023-04-03T01:46:58;0.77;;;0.60;;
78987;SDS011;68389;44.716;37.756;2023-04-03T01:48:00;2.17;;;0.70;;
78987;SDS011;68389;44.716;37.756;2023-04-03T01:49:01;3.88;;;0.70;;
78987;SDS011;68389;44.716;37.756;2023-04-03T01:50:02;1.05;;;0.70;;
78987;SDS011;68389;44.716;37.756;2023-04-03T01:51:04;1.50;;;0.52;;
78987;SDS011;68389;44.716;37.756;2023-04-03T01:52:05;0.93;;;0.68;;
78987;SDS011;68389;44.716;37.756;2023-04-03T01:53:06;2.13;;;0.65;;
78987;SDS011;68389;44.716;37.756;2023-04-03T01:54:08;1.70;;;0.88;;
78987;SDS011;68389;44.716;37.756;2023-04-03T01:55:09;0.60;;;0.60;;
78987;SDS011;68389;44.716;37.756;2023-04-03T01:56:10;2.95;;;0.80;;
78987;SDS011;68389;44.716;37.756;2023-04-03T01:57:11;1.23;;;0.68;;
78987;SDS011;68389;44.716;37.756;2023-04-03T01:58:14;3.45;;;0.77;;
78987;SDS011;68389;44.716;37.756;2023-04-03T01:59:15;1.35;;;0.70;;
78987;SDS011;68389;44.716;37.756;2023-04-03T02:00:18;1.33;;;0.77;;
78987;SDS011;68389;44.716;37.756;2023-04-03T02:01:19;1.50;;;0.98;;
78987;SDS011;68389;44.716;37.756;2023-04-03T02:02:21;1.08;;;0.70;;
78987;SDS011;68389;44.716;37.756;2023-04-03T02:03:22;1.55;;;0.70;;
78987;SDS011;68389;44.716;37.756;2023-04-03T02:04:24;2.13;;;0.80;;
78987;SDS011;68389;44.716;37.756;2023-04-03T02:05:25;1.35;;;0.70;;
78987;SDS011;68389;44.716;37.756;2023-04-03T02:06:26;1.05;;;0.70;;
78987;SDS011;68389;44.716;37.756;2023-04-03T02:07:27;1.30;;;0.68;;
78987;SDS011;68389;44.716;37.756;2023-04-03T02:08:28;0.60;;;0.60;;
78987;SDS011;68389;44.716;37.756;2023-04-03T02:09:30;1.40;;;0.75;;
78987;SDS011;68389;44.716;37.756;2023-04-03T02:10:31;3.00;;;0.70;;
78987;SDS011;68389;44.716;37.756;2023-04-03T02:11:32;1.13;;;0.65;;
78987;SDS011;68389;44.716;37.756;2023-04-03T02:12:33;1.52;;;0.80;;
78987;SDS011;68389;44.716;37.756;2023-04-03T02:13:34;0.60;;;0.60;;
78987;SDS011;68389;44.716;37.756;2023-04-03T02:14:36;1.25;;;0.88;;
78987;SDS011;68389;44.716;37.756;2023-04-03T02:15:38;2.03;;;0.70;;
78987;SDS011;68389;44.716;37.756;2023-04-03T02:16:39;1.60;;;0.80;;
78987;SDS011;68389;44.716;37.756;2023-04-03T02:17:41;3.05;;;0.90;;
78987;SDS011;68389;44.716;37.756;2023-04-03T02:18:42;1.52;;;0.80;;
78987;SDS011;68389;44.716;37.756;2023-04-03T02:19:43;1.95;;;0.75;;
78987;SDS011;68389;44.716;37.756;2023-04-03T02:20:45;1.90;;;0.90;;
78987;SDS011;68389;44.716;37.756;2023-04-03T02:21:47;1.08;;;0.85;;
78987;SDS011;68389;44.716;37.756;2023-04-03T02:22:49;1.55;;;0.90;;
78987;SDS011;68389;44.716;37.756;2023-04-03T02:23:50;1.08;;;0.70;;
78987;SDS011;68389;44.716;37.756;2023-04-03T02:24:51;0.68;;;0.60;;
78987;SDS011;68389;44.716;37.756;2023-04-03T02:25:52;1.63;;;0.90;;
78987;SDS011;68389;44.716;37.756;2023-04-03T02:26:53;0.95;;;0.70;;
78987;SDS011;68389;44.716;37.756;2023-04-03T02:27:54;0.70;;;0.70;;
78987;SDS011;68389;44.716;37.756;2023-04-03T02:28:55;1.52;;;0.90;;
78987;SDS011;68389;44.716;37.756;2023-04-03T02:29:57;1.88;;;0.90;;
78987;SDS011;68389;44.716;37.756;2023-04-03T02:30:58;2.75;;;0.90;;
78987;SDS011;68389;44.716;37.756;2023-04-03T02:31:59;1.02;;;0.60;;
78987;SDS011;68389;44.716;37.756;2023-04-03T02:33:00;1.92;;;0.80;;
78987;SDS011;68389;44.716;37.756;2023-04-03T02:34:01;1.02;;;0.60;;
78987;SDS011;68389;44.716;37.756;2023-04-03T02:35:02;2.33;;;0.80;;
78987;SDS011;68389;44.716;37.756;2023-04-03T02:36:04;0.70;;;0.70;;
78987;SDS011;68389;44.716;37.756;2023-04-03T02:37:07;1.77;;;0.85;;
78987;SDS011;68389;44.716;37.756;2023-04-03T02:38:08;2.25;;;0.70;;
78987;SDS011;68389;44.716;37.756;2023-04-03T02:39:09;1.00;;;0.80;;
78987;SDS011;68389;44.716;37.756;2023-04-03T02:40:10;0.93;;;0.57;;
78987;SDS011;68389;44.716;37.756;2023-04-03T02:41:12;2.13;;;0.80;;
78987;SDS011;68389;44.716;37.756;2023-04-03T02:42:13;0.60;;;0.60;;
78987;SDS011;68389;44.716;37.756;2023-04-03T02:43:15;1.00;;;0.70;;
78987;SDS011;68389;44.716;37.756;2023-04-03T02:44:16;2.65;;;0.80;;
78987;SDS011;68389;44.716;37.756;2023-04-03T02:45:17;1.05;;;0.77;;
78987;SDS011;68389;44.716;37.756;2023-04-03T02:46:18;2.33;;;0.82;;
78987;SDS011;68389;44.716;37.756;2023-04-03T02:47:19;1.00;;;0.63;;
78987;SDS011;68389;44.716;37.756;2023-04-03T02:48:20;2.60;;;1.05;;
78987;SDS011;68389;44.716;37.756;2023-04-03T02:49:22;0.90;;;0.90;;
78987;SDS011;68389;44.716;37.756;2023-04-03T02:50:23;1.10;;;0.55;;
78987;SDS011;68389;44.716;37.756;2023-04-03T02:51:24;2.75;;;0.90;;
78987;SDS011;68389;44.716;37.756;2023-04-03T02:52:25;0.80;;;0.80;;
78987;SDS011;68389;44.716;37.756;2023-04-03T02:53:26;0.52;;;0.52;;
78987;SDS011;68389;44.716;37.756;2023-04-03T02:54:27;1.27;;;0.55;;
78987;SDS011;68389;44.716;37.756;2023-04-03T02:55:30;2.22;;;0.98;;
78987;SDS011;68389;44.716;37.756;2023-04-03T02:56:31;1.45;;;0.82;;
78987;SDS011;68389;44.716;37.756;2023-04-03T02:57:32;1.15;;;0.82;;
78987;SDS011;68389;44.716;37.756;2023-04-03T02:58:34;1.02;;;0.70;;
78987;SDS011;68389;44.716;37.756;2023-04-03T02:59:36;1.55;;;0.80;;
78987;SDS011;68389;44.716;37.756;2023-04-03T03:00:38;2.55;;;0.90;;
78987;SDS011;68389;44.716;37.756;2023-04-03T03:01:39;2.05;;;0.90;;
78987;SDS011;68389;44.716;37.756;2023-04-03T03:02:40;1.70;;;0.70;;
78987;SDS011;68389;44.716;37.756;2023-04-03T03:03:41;3.95;;;1.08;;
78987;SDS011;68389;44.716;37.756;2023-04-03T03:04:42;2.38;;;0.90;;
78987;SDS011;68389;44.716;37.756;2023-04-03T03:05:43;1.60;;;0.80;;
78987;SDS011;68389;44.716;37.756;2023-04-03T03:06:44;2.00;;;0.88;;
78987;SDS011;68389;44.716;37.756;2023-04-03T03:07:46;1.92;;;0.80;;
78987;SDS011;68389;44.716;37.756;2023-04-03T03:08:48;1.60;;;0.80;;
78987;SDS011;68389;44.716;37.756;2023-04-03T03:09:49;2.30;;;0.98;;
78987;SDS011;68389;44.716;37.756;2023-04-03T03:10:50;2.20;;;0.90;;
78987;SDS011;68389;44.716;37.756;2023-04-03T03:11:51;1.95;;;0.82;;
78987;SDS011;68389;44.716;37.756;2023-04-03T03:12:52;1.88;;;0.80;;
78987;SDS011;68389;44.716;37.756;2023-04-03T03:13:54;2.22;;;0.93;;
78987;SDS011;68389;44.716;37.756;2023-04-03T03:14:55;1.33;;;0.65;;
78987;SDS011;68389;44.716;37.756;2023-04-03T03:15:56;3.55;;;1.00;;
78987;SDS011;68389;44.716;37.756;2023-04-03T03:16:58;2.03;;;0.80;;
78987;SDS011;68389;44.716;37.756;2023-04-03T03:17:59;0.90;;;0.75;;
78987;SDS011;68389;44.716;37.756;2023-04-03T03:19:00;1.23;;;0.80;;
78987;SDS011;68389;44.716;37.756;2023-04-03T03:20:01;1.00;;;0.70;;
78987;SDS011;68389;44.716;37.756;2023-04-03T03:21:03;1.50;;;0.80;;
78987;SDS011;68389;44.716;37.756;2023-04-03T03:22:05;2.75;;;1.25;;
78987;SDS011;68389;44.716;37.756;2023-04-03T03:23:06;1.55;;;0.93;;
78987;SDS011;68389;44.716;37.756;2023-04-03T03:24:07;1.92;;;0.93;;
78987;SDS011;68389;44.716;37.756;2023-04-03T03:25:08;1.65;;;0.82;;
78987;SDS011;68389;44.716;37.756;2023-04-03T03:26:10;1.75;;;0.90;;
78987;SDS011;68389;44.716;37.756;2023-04-03T03:27:11;2.17;;;0.93;;
78987;SDS011;68389;44.716;37.756;2023-04-03T03:28:13;1.70;;;0.90;;
78987;SDS011;68389;44.716;37.756;2023-04-03T03:29:14;1.25;;;0.90;;
78987;SDS011;68389;44.716;37.756;2023-04-03T03:30:15;1.40;;;0.80;;
78987;SDS011;68389;44.716;37.756;2023-04-03T03:31:16;2.60;;;1.10;;
78987;SDS011;68389;44.716;37.756;2023-04-03T03:32:17;2.05;;;0.95;;
78987;SDS011;68389;44.716;37.756;2023-04-03T03:33:18;2.65;;;0.88;;
78987;SDS011;68389;44.716;37.756;2023-04-03T03:34:19;2.22;;;1.27;;
78987;SDS011;68389;44.716;37.756;2023-04-03T03:35:21;2.67;;;1.02;;
78987;SDS011;68389;44.716;37.756;2023-04-03T03:36:22;2.42;;;0.95;;
78987;SDS011;68389;44.716;37.756;2023-04-03T03:37:23;2.10;;;0.90;;
78987;SDS011;68389;44.716;37.756;2023-04-03T03:38:25;1.92;;;1.00;;
78987;SDS011;68389;44.716;37.756;2023-04-03T03:39:26;1.42;;;0.80;;
78987;SDS011;68389;44.716;37.756;2023-04-03T03:40:27;2.38;;;1.05;;
78987;SDS011;68389;44.716;37.756;2023-04-03T03:41:28;3.92;;;1.23;;
78987;SDS011;68389;44.716;37.756;2023-04-03T03:42:29;3.13;;;0.93;;
78987;SDS011;68389;44.716;37.756;2023-04-03T03:43:30;1.67;;;0.90;;
78987;SDS011;68389;44.716;37.756;2023-04-03T03:44:31;2.25;;;1.10;;
78987;SDS011;68389;44.716;37.756;2023-04-03T03:45:32;1.98;;;1.08;;
78987;SDS011;68389;44.716;37.756;2023-04-03T03:46:34;2.47;;;1.25;;
78987;SDS011;68389;44.716;37.756;2023-04-03T03:47:35;2.30;;;1.02;;
78987;SDS011;68389;44.716;37.756;2023-04-03T03:48:36;3.85;;;1.23;;
78987;SDS011;68389;44.716;37.756;2023-04-03T03:49:37;2.97;;;1.10;;
78987;SDS011;68389;44.716;37.756;2023-04-03T03:50:38;1.42;;;1.00;;
78987;SDS011;68389;44.716;37.756;2023-04-03T03:51:39;1.95;;;0.82;;
78987;SDS011;68389;44.716;37.756;2023-04-03T03:52:41;1.83;;;0.80;;
78987;SDS011;68389;44.716;37.756;2023-04-03T03:53:42;3.15;;;1.25;;
78987;SDS011;68389;44.716;37.756;2023-04-03T03:54:43;1.67;;;1.10;;
78987;SDS011;68389;44.716;37.756;2023-04-03T03:55:44;1.85;;;1.10;;
78987;SDS011;68389;44.716;37.756;2023-04-03T03:56:45;5.05;;;1.17;;
78987;SDS011;68389;44.716;37.756;2023-04-03T03:57:46;4.63;;;1.17;;
78987;SDS011;68389;44.716;37.756;2023-04-03T03:58:47;2.10;;;1.23;;
78987;SDS011;68389;44.716;37.756;2023-04-03T03:59:49;2.33;;;1.13;;
78987;SDS011;68389;44.716;37.756;2023-04-03T04:00:52;2.47;;;1.08;;
78987;SDS011;68389;44.716;37.756;2023-04-03T04:01:53;2.05;;;1.20;;
78987;SDS011;68389;44.716;37.756;2023-04-03T04:02:54;2.97;;;1.40;;
78987;SDS011;68389;44.716;37.756;2023-04-03T04:03:56;2.92;;;1.15;;
78987;SDS011;68389;44.716;37.756;2023-04-03T04:04:57;2.63;;;1.23;;
78987;SDS011;68389;44.716;37.756;2023-04-03T04:05:58;3.38;;;1.08;;
78987;SDS011;68389;44.716;37.756;2023-04-03T04:07:00;1.63;;;1.10;;
78987;SDS011;68389;44.716;37.756;2023-04-03T04:08:01;3.25;;;1.30;;
78987;SDS011;68389;44.716;37.756;2023-04-03T04:09:02;3.10;;;1.10;;
78987;SDS011;68389;44.716;37.756;2023-04-03T04:10:03;2.08;;;1.30;;
78987;SDS011;68389;44.716;37.756;2023-04-03T04:11:05;3.10;;;1.10;;
78987;SDS011;68389;44.716;37.756;2023-04-03T04:12:06;3.42;;;1.10;;
78987;SDS011;68389;44.716;37.756;2023-04-03T04:13:07;3.13;;;1.27;;
78987;SDS011;68389;44.716;37.756;2023-04-03T04:14:09;5.18;;;1.17;;
78987;SDS011;68389;44.716;37.756;2023-04-03T04:15:10;2.67;;;1.33;;
78987;SDS011;68389;44.716;37.756;2023-04-03T04:16:11;2.53;;;1.10;;
78987;SDS011;68389;44.716;37.756;2023-04-03T04:17:13;5.00;;;1.40;;
78987;SDS011;68389;44.716;37.756;2023-04-03T04:18:14;2.08;;;0.98;;
78987;SDS011;68389;44.716;37.756;2023-04-03T04:19:16;3.20;;;1.10;;
78987;SDS011;68389;44.716;37.756;2023-04-03T04:20:17;3.55;;;1.10;;
78987;SDS011;68389;44.716;37.756;2023-04-03T04:21:18;2.55;;;1.10;;
78987;SDS011;68389;44.716;37.756;2023-04-03T04:22:19;3.05;;;1.33;;
78987;SDS011;68389;44.716;37.756;2023-04-03T04:23:20;3.25;;;1.30;;
78987;SDS011;68389;44.716;37.756;2023-04-03T04:24:21;2.97;;;1.25;;
78987;SDS011;68389;44.716;37.756;2023-04-03T04:25:25;3.40;;;1.02;;
78987;SDS011;68389;44.716;37.756;2023-04-03T04:26:27;2.00;;;1.10;;
78987;SDS011;68389;44.716;37.756;2023-04-03T04:27:28;2.90;;;1.30;;
78987;SDS011;68389;44.716;37.756;2023-04-03T04:28:29;2.40;;;1.10;;
78987;SDS011;68389;44.716;37.756;2023-04-03T04:29:30;4.20;;;1.45;;
78987;SDS011;68389;44.716;37.756;2023-04-03T04:30:36;2.70;;;1.30;;
78987;SDS011;68389;44.716;37.756;2023-04-03T04:31:37;2.13;;;1.17;;
78987;SDS011;68389;44.716;37.756;2023-04-03T04:32:38;2.83;;;1.25;;
78987;SDS011;68389;44.716;37.756;2023-04-03T04:33:39;8.10;;;1.70;;
78987;SDS011;68389;44.716;37.756;2023-04-03T04:34:40;5.57;;;1.45;;
78987;SDS011;68389;44.716;37.756;2023-04-03T04:35:42;6.55;;;1.20;;
78987;SDS011;68389;44.716;37.756;2023-04-03T04:36:44;7.80;;;1.58;;
78987;SDS011;68389;44.716;37.756;2023-04-03T04:37:45;3.85;;;1.00;;
78987;SDS011;68389;44.716;37.756;2023-04-03T04:38:46;4.72;;;1.90;;
78987;SDS011;68389;44.716;37.756;2023-04-03T04:39:47;2.47;;;1.00;;
78987;SDS011;68389;44.716;37.756;2023-04-03T04:40:48;2.50;;;0.88;;
78987;SDS011;68389;44.716;37.756;2023-04-03T04:41:49;3.17;;;1.05;;
78987;SDS011;68389;44.716;37.756;2023-04-03T04:42:50;4.45;;;1.63;;
78987;SDS011;68389;44.716;37.756;2023-04-03T04:43:52;2.53;;;1.20;;
78987;SDS011;68389;44.716;37.756;2023-04-03T04:44:53;6.00;;;1.20;;
78987;SDS011;68389;44.716;37.756;2023-04-03T04:46:27;4.68;;;1.60;;
78987;SDS011;68389;44.716;37.756;2023-04-03T04:47:21;4.15;;;1.05;;
78987;SDS011;68389;44.716;37.756;2023-04-03T04:48:23;2.78;;;1.17;;
78987;SDS011;68389;44.716;37.756;2023-04-03T04:49:24;3.50;;;1.02;;
78987;SDS011;68389;44.716;37.756;2023-04-03T04:50:25;3.80;;;1.20;;
78987;SDS011;68389;44.716;37.756;2023-04-03T04:51:26;3.35;;;1.05;;
78987;SDS011;68389;44.716;37.756;2023-04-03T04:52:27;3.00;;;1.10;;
78987;SDS011;68389;44.716;37.756;2023-04-03T04:53:28;3.00;;;0.90;;
78987;SDS011;68389;44.716;37.756;2023-04-03T04:54:29;2.03;;;1.00;;
78987;SDS011;68389;44.716;37.756;2023-04-03T04:55:30;2.65;;;1.10;;
78987;SDS011;68389;44.716;37.756;2023-04-03T04:56:31;2.92;;;0.98;;
78987;SDS011;68389;44.716;37.756;2023-04-03T04:57:32;2.95;;;1.02;;
78987;SDS011;68389;44.716;37.756;2023-04-03T04:58:35;2.15;;;1.13;;
78987;SDS011;68389;44.716;37.756;2023-04-03T04:59:36;3.83;;;1.00;;
78987;SDS011;68389;44.716;37.756;2023-04-03T05:00:37;2.75;;;0.88;;
78987;SDS011;68389;44.716;37.756;2023-04-03T05:01:38;2.78;;;1.50;;
78987;SDS011;68389;44.716;37.756;2023-04-03T05:02:39;3.45;;;1.00;;
78987;SDS011;68389;44.716;37.756;2023-04-03T05:03:40;1.63;;;0.93;;
78987;SDS011;68389;44.716;37.756;2023-04-03T05:04:42;3.65;;;1.27;;
78987;SDS011;68389;44.716;37.756;2023-04-03T05:05:43;6.65;;;1.30;;
78987;SDS011;68389;44.716;37.756;2023-04-03T05:06:44;3.05;;;0.90;;
78987;SDS011;68389;44.716;37.756;2023-04-03T05:07:45;2.67;;;1.10;;
78987;SDS011;68389;44.716;37.756;2023-04-03T05:08:46;2.03;;;0.77;;
78987;SDS011;68389;44.716;37.756;2023-04-03T05:09:47;1.23;;;0.70;;
78987;SDS011;68389;44.716;37.756;2023-04-03T05:10:48;2.83;;;1.27;;
78987;SDS011;68389;44.716;37.756;2023-04-03T05:11:49;3.80;;;0.80;;
78987;SDS011;68389;44.716;37.756;2023-04-03T05:12:50;3.38;;;0.88;;
78987;SDS011;68389;44.716;37.756;2023-04-03T05:13:52;3.75;;;0.95;;
78987;SDS011;68389;44.716;37.756;2023-04-03T05:14:53;5.03;;;1.20;;
78987;SDS011;68389;44.716;37.756;2023-04-03T05:15:54;2.00;;;1.08;;
78987;SDS011;68389;44.716;37.756;2023-04-03T05:16:55;3.55;;;0.90;;
78987;SDS011;68389;44.716;37.756;2023-04-03T05:17:58;4.13;;;1.00;;
78987;SDS011;68389;44.716;37.756;2023-04-03T05:19:00;2.22;;;0.90;;
78987;SDS011;68389;44.716;37.756;2023-04-03T05:20:01;2.10;;;1.02;;
78987;SDS011;68389;44.716;37.756;2023-04-03T05:21:04;6.07;;;1.10;;
78987;SDS011;68389;44.716;37.756;2023-04-03T05:22:05;2.13;;;0.82;;
78987;SDS011;68389;44.716;37.756;2023-04-03T05:23:06;4.43;;;1.00;;
78987;SDS011;68389;44.716;37.756;2023-04-03T05:24:07;1.83;;;0.85;;
78987;SDS011;68389;44.716;37.756;2023-04-03T05:25:09;1.27;;;0.85;;
78987;SDS011;68389;44.716;37.756;2023-04-03T05:26:10;3.05;;;1.00;;
78987;SDS011;68389;44.716;37.756;2023-04-03T05:27:11;3.20;;;0.85;;
78987;SDS011;68389;44.716;37.756;2023-04-03T05:28:13;2.25;;;1.00;;
78987;SDS011;68389;44.716;37.756;2023-04-03T05:29:14;2.22;;;0.82;;
78987;SDS011;68389;44.716;37.756;2023-04-03T05:30:15;1.92;;;0.93;;
78987;SDS011;68389;44.716;37.756;2023-04-03T05:31:17;1.85;;;0.88;;
78987;SDS011;68389;44.716;37.756;2023-04-03T05:32:18;2.08;;;1.17;;
78987;SDS011;68389;44.716;37.756;2023-04-03T05:33:19;1.45;;;0.80;;
78987;SDS011;68389;44.716;37.756;2023-04-03T05:34:20;1.58;;;0.85;;
78987;SDS011;68389;44.716;37.756;2023-04-03T05:35:26;3.60;;;1.00;;
78987;SDS011;68389;44.716;37.756;2023-04-03T05:36:27;2.58;;;0.90;;
78987;SDS011;68389;44.716;37.756;2023-04-03T05:37:28;1.58;;;0.90;;
78987;SDS011;68389;44.716;37.756;2023-04-03T05:38:30;2.70;;;0.95;;
78987;SDS011;68389;44.716;37.756;2023-04-03T05:39:31;3.38;;;0.90;;
78987;SDS011;68389;44.716;37.756;2023-04-03T05:40:32;2.53;;;1.27;;
78987;SDS011;68389;44.716;37.756;2023-04-03T05:41:33;3.50;;;1.02;;
78987;SDS011;68389;44.716;37.756;2023-04-03T05:42:34;3.40;;;1.08;;
78987;SDS011;68389;44.716;37.756;2023-04-03T05:43:36;2.38;;;0.90;;
78987;SDS011;68389;44.716;37.756;2023-04-03T05:44:39;3.25;;;1.35;;
78987;SDS011;68389;44.716;37.756;2023-04-03T05:45:42;2.38;;;1.27;;
78987;SDS011;68389;44.716;37.756;2023-04-03T05:46:43;2.33;;;1.02;;
78987;SDS011;68389;44.716;37.756;2023-04-03T05:47:44;1.23;;;0.90;;
78987;SDS011;68389;44.716;37.756;2023-04-03T05:48:46;2.55;;;1.05;;
78987;SDS011;68389;44.716;37.756;2023-04-03T05:49:47;0.88;;;0.70;;
78987;SDS011;68389;44.716;37.756;2023-04-03T05:50:48;2.13;;;1.00;;
78987;SDS011;68389;44.716;37.756;2023-04-03T05:51:50;3.38;;;0.80;;
78987;SDS011;68389;44.716;37.756;2023-04-03T05:52:52;2.47;;;0.80;;
78987;SDS011;68389;44.716;37.756;2023-04-03T05:54:06;1.65;;;0.90;;
78987;SDS011;68389;44.716;37.756;2023-04-03T05:55:19;1.48;;;1.02;;
78987;SDS011;68389;44.716;37.756;2023-04-03T05:56:20;1.95;;;0.80;;
78987;SDS011;68389;44.716;37.756;2023-04-03T05:57:22;1.63;;;1.00;;
78987;SDS011;68389;44.716;37.756;2023-04-03T05:58:23;1.83;;;0.82;;
78987;SDS011;68389;44.716;37.756;2023-04-03T05:59:24;0.98;;;0.70;;
78987;SDS011;68389;44.716;37.756;2023-04-03T06:00:25;2.58;;;1.02;;
78987;SDS011;68389;44.716;37.756;2023-04-03T06:01:28;3.63;;;1.20;;
78987;SDS011;68389;44.716;37.756;2023-04-03T06:02:29;1.25;;;1.00;;
78987;SDS011;68389;44.716;37.756;2023-04-03T06:03:31;1.55;;;0.80;;
78987;SDS011;68389;44.716;37.756;2023-04-03T06:04:32;2.75;;;0.88;;
78987;SDS011;68389;44.716;37.756;2023-04-03T06:05:34;2.85;;;0.93;;
78987;SDS011;68389;44.716;37.756;2023-04-03T06:07:49;1.73;;;0.90;;
78987;SDS011;68389;44.716;37.756;2023-04-03T06:08:51;2.67;;;1.20;;
78987;SDS011;68389;44.716;37.756;2023-04-03T06:09:52;2.45;;;1.00;;
78987;SDS011;68389;44.716;37.756;2023-04-03T06:10:54;2.53;;;0.80;;
78987;SDS011;68389;44.716;37.756;2023-04-03T06:11:57;1.55;;;0.82;;
78987;SDS011;68389;44.716;37.756;2023-04-03T06:12:59;1.92;;;1.00;;
78987;SDS011;68389;44.716;37.756;2023-04-03T06:14:00;2.55;;;0.90;;
78987;SDS011;68389;44.716;37.756;2023-04-03T06:15:01;1.10;;;0.70;;